Ocean Jupiter — CFK3107 — position and weather

sailwx.info

Track history (hours):
 
Tides and Currents Weather Stations Pressure Air Temp Water Temp Dewpoint Dewpoint Depression Visibility Wind Speed Wind Dir Waves Ship Positions

Ocean Jupiter

Last reported at 2014-Nov-21 05:33 UTC. Time now 2014-Nov-22 00:17 UTC.
Position N 45°57' W 073°13'.

Length 24 m; draft 3.2 m.

Type: Tug. MMSI: 316008255.

Date/timePositionNaut miles runAvg speedWind from/ knotsBaromVisibWave heightAir tempDewpointWater temp
2014-Nov-21 05:33N 45°57' W 073°13'1211.6
2014-Nov-21 04:33N 45°47' W 073°21'1111.2
2014-Nov-21 03:33N 45°38' W 073°30'0 0.0
2014-Nov-21 02:33N 45°38' W 073°30'1 0.6
2014-Nov-21 01:33N 45°38' W 073°29'7 6.6
2014-Nov-21 00:33N 45°44' W 073°25'9 8.6
2014-Nov-20 23:33N 45°50' W 073°17'8 8.1
2014-Nov-20 22:33N 45°58' W 073°12'  
2014-Nov-16 15:07N 46°00' W 073°11'711.8
2014-Nov-16 14:33N 45°54' W 073°14'4 4.2
2014-Nov-16 13:33N 45°50' W 073°17'2 2.0
2014-Nov-16 12:33N 45°52' W 073°16'7 7.2
2014-Nov-16 11:33N 45°59' W 073°12'5 0.2
2014-Nov-15 09:33N 46°03' W 073°08'0 0.2
2014-Nov-15 08:33N 46°03' W 073°08'1 0.6
2014-Nov-15 07:33N 46°03' W 073°07'  
2014-Nov-12 21:33N 45°56' W 073°13'7 6.9
2014-Nov-12 20:33N 45°50' W 073°17'0 0.1
2014-Nov-12 19:33N 45°50' W 073°17'0 0.0
2014-Nov-12 18:33N 45°50' W 073°17'0 0.0
2014-Nov-12 17:33N 45°50' W 073°17'1 0.8
2014-Nov-12 16:33N 45°51' W 073°17'  
Track history (hours):
 
Tides and Currents Weather Stations Pressure Air Temp Water Temp Dewpoint Dewpoint Depression Visibility Wind Speed Wind Dir Waves Ship Positions

Ocean Jupiter

Last reported at 2014-Nov-21 05:33 UTC. Time now 2014-Nov-22 00:17 UTC.
Position N 45°57' W 073°13'.

Length 24 m; draft 3.2 m.

Type: Tug. MMSI: 316008255.

Date/timePositionNaut miles runAvg speedWind from/ knotsBaromVisibWave heightAir tempDewpointWater temp
2014-Nov-21 05:33N 45°57' W 073°13'1211.6
2014-Nov-21 04:33N 45°47' W 073°21'1111.2
2014-Nov-21 03:33N 45°38' W 073°30'0 0.0
2014-Nov-21 02:33N 45°38' W 073°30'1 0.6
2014-Nov-21 01:33N 45°38' W 073°29'7 6.6
2014-Nov-21 00:33N 45°44' W 073°25'9 8.6
2014-Nov-20 23:33N 45°50' W 073°17'8 8.1
2014-Nov-20 22:33N 45°58' W 073°12'  
2014-Nov-16 15:07N 46°00' W 073°11'711.8
2014-Nov-16 14:33N 45°54' W 073°14'4 4.2
2014-Nov-16 13:33N 45°50' W 073°17'2 2.0
2014-Nov-16 12:33N 45°52' W 073°16'7 7.2
2014-Nov-16 11:33N 45°59' W 073°12'5 0.2
2014-Nov-15 09:33N 46°03' W 073°08'0 0.2
2014-Nov-15 08:33N 46°03' W 073°08'1 0.6
2014-Nov-15 07:33N 46°03' W 073°07'  
2014-Nov-12 21:33N 45°56' W 073°13'7 6.9
2014-Nov-12 20:33N 45°50' W 073°17'0 0.1
2014-Nov-12 19:33N 45°50' W 073°17'0 0.0
2014-Nov-12 18:33N 45°50' W 073°17'0 0.0
2014-Nov-12 17:33N 45°50' W 073°17'1 0.8
2014-Nov-12 16:33N 45°51' W 073°17'  

Dump ship's entire track history